Aylesford, Canada
Current Conditions -  °F | °C
As of 6:00 PM on Wednesday 22 Oct 2014 (Local Time) from CYZX Reporting Station
Light Rain Light Rain  
Wind Chill: 50°   Ceiling: 1600
Heat Index: 50°   Visibility: 2.5mi
Dew Point: 48°   Wind: 20mph
Humidity: 94%   Direction: 60°ENE
Pressure: 30.19"   Gusts: 33mph
Location:  45.03°N, 64.84°W
Report Text: CYZX 222100Z 06017G29KT 2 1/2SM -RA BR SCT011 OVC016 10/09 A3019 RMK SC4SC4 WNDY HILL 08023G30KT VIS VRB 11/2-4 SLP224
Loading
Personal Weather Stations






























Interactive Weather Map
Tropical Storm Tracking
New forecast layout! Learn more

10-Day Weather Forecast

Advertisements
Track Severe Weather on mobile